sensor_id;sensor_type;location;lat;lon;timestamp;pressure;altitude;pressure_sealevel;temperature;humidity
60373;BME280;46216;52.220;5.134;2022-10-17T00:02:20;101806.13;;;15.48;100.00
60373;BME280;46216;52.220;5.134;2022-10-17T00:04:46;101808.97;;;15.46;100.00
60373;BME280;46216;52.220;5.134;2022-10-17T00:07:11;101809.06;;;15.45;100.00
60373;BME280;46216;52.220;5.134;2022-10-17T00:09:41;101810.03;;;15.44;100.00
60373;BME280;46216;52.220;5.134;2022-10-17T00:12:06;101803.69;;;15.45;100.00
60373;BME280;46216;52.220;5.134;2022-10-17T00:14:31;101802.97;;;15.43;100.00
60373;BME280;46216;52.220;5.134;2022-10-17T00:16:57;101802.97;;;15.43;100.00
60373;BME280;46216;52.220;5.134;2022-10-17T00:19:22;101804.91;;;15.41;100.00
60373;BME280;46216;52.220;5.134;2022-10-17T00:21:48;101803.31;;;15.38;100.00
60373;BME280;46216;52.220;5.134;2022-10-17T00:24:13;101807.22;;;15.34;100.00
60373;BME280;46216;52.220;5.134;2022-10-17T00:26:39;101806.34;;;15.33;100.00
60373;BME280;46216;52.220;5.134;2022-10-17T00:29:04;101811.72;;;15.33;100.00
60373;BME280;46216;52.220;5.134;2022-10-17T00:31:29;101815.50;;;15.31;100.00
60373;BME280;46216;52.220;5.134;2022-10-17T00:33:55;101807.44;;;15.31;100.00
60373;BME280;46216;52.220;5.134;2022-10-17T00:36:24;101797.06;;;15.26;100.00
60373;BME280;46216;52.220;5.134;2022-10-17T00:38:55;101804.28;;;15.26;100.00
60373;BME280;46216;52.220;5.134;2022-10-17T00:41:23;101804.28;;;15.26;100.00
60373;BME280;46216;52.220;5.134;2022-10-17T00:43:50;101792.69;;;15.25;100.00
60373;BME280;46216;52.220;5.134;2022-10-17T00:46:15;101799.13;;;15.23;100.00
60373;BME280;46216;52.220;5.134;2022-10-17T00:48:41;101795.38;;;15.25;100.00
60373;BME280;46216;52.220;5.134;2022-10-17T00:51:06;101798.06;;;15.25;100.00
60373;BME280;46216;52.220;5.134;2022-10-17T00:53:32;101781.94;;;15.25;100.00
60373;BME280;46216;52.220;5.134;2022-10-17T00:55:58;101791.78;;;15.25;100.00
60373;BME280;46216;52.220;5.134;2022-10-17T00:58:23;101785.47;;;15.26;100.00
60373;BME280;46216;52.220;5.134;2022-10-17T01:00:51;101782.56;;;15.29;100.00
60373;BME280;46216;52.220;5.134;2022-10-17T01:03:16;101786.19;;;15.28;100.00
60373;BME280;46216;52.220;5.134;2022-10-17T01:05:42;101787.94;;;15.29;100.00
60373;BME280;46216;52.220;5.134;2022-10-17T01:08:08;101782.66;;;15.27;100.00
60373;BME280;46216;52.220;5.134;2022-10-17T01:11:00;101774.22;;;15.21;100.00
60373;BME280;46216;52.220;5.134;2022-10-17T01:13:38;101765.22;;;15.22;100.00
60373;BME280;46216;52.220;5.134;2022-10-17T01:16:20;101772.28;;;15.23;100.00
60373;BME280;46216;52.220;5.134;2022-10-17T01:21:55;101767.63;;;15.25;100.00
60373;BME280;46216;52.220;5.134;2022-10-17T01:24:35;101764.22;;;15.23;100.00
60373;BME280;46216;52.220;5.134;2022-10-17T01:27:14;101757.88;;;15.24;100.00
60373;BME280;46216;52.220;5.134;2022-10-17T01:30:09;101756.41;;;15.20;100.00
60373;BME280;46216;52.220;5.134;2022-10-17T01:33:16;101764.47;;;15.20;100.00
60373;BME280;46216;52.220;5.134;2022-10-17T01:38:27;101765.22;;;15.22;100.00
60373;BME280;46216;52.220;5.134;2022-10-17T01:41:02;101766.91;;;15.23;100.00
60373;BME280;46216;52.220;5.134;2022-10-17T01:43:39;101759.84;;;15.22;100.00
60373;BME280;46216;52.220;5.134;2022-10-17T01:48:59;101755.66;;;15.18;100.00
60373;BME280;46216;52.220;5.134;2022-10-17T01:51:29;101747.59;;;15.18;100.00
60373;BME280;46216;52.220;5.134;2022-10-17T01:54:08;101746.97;;;15.14;100.00
60373;BME280;46216;52.220;5.134;2022-10-17T01:56:37;101729.78;;;15.17;100.00
60373;BME280;46216;52.220;5.134;2022-10-17T01:59:12;101726.34;;;15.14;100.00
60373;BME280;46216;52.220;5.134;2022-10-17T02:01:40;101714.66;;;15.16;100.00
60373;BME280;46216;52.220;5.134;2022-10-17T02:04:08;101710.25;;;15.14;100.00
60373;BME280;46216;52.220;5.134;2022-10-17T02:06:35;101700.38;;;15.15;100.00
60373;BME280;46216;52.220;5.134;2022-10-17T02:09:15;101700.84;;;15.09;100.00
60373;BME280;46216;52.220;5.134;2022-10-17T02:11:42;101704.03;;;15.14;100.00
60373;BME280;46216;52.220;5.134;2022-10-17T02:19:46;101699.50;;;15.14;100.00
60373;BME280;46216;52.220;5.134;2022-10-17T02:22:41;101700.50;;;15.13;100.00
60373;BME280;46216;52.220;5.134;2022-10-17T02:25:18;101701.25;;;15.16;100.00
60373;BME280;46216;52.220;5.134;2022-10-17T02:27:59;101696.09;;;15.12;100.00
60373;BME280;46216;52.220;5.134;2022-10-17T02:30:33;101697.81;;;15.13;100.00
60373;BME280;46216;52.220;5.134;2022-10-17T02:33:06;101690.59;;;15.14;100.00
60373;BME280;46216;52.220;5.134;2022-10-17T02:35:36;101693.19;;;15.16;100.00
60373;BME280;46216;52.220;5.134;2022-10-17T02:38:04;101688.75;;;15.14;100.00
60373;BME280;46216;52.220;5.134;2022-10-17T02:40:31;101690.25;;;15.19;100.00
60373;BME280;46216;52.220;5.134;2022-10-17T02:42:58;101690.88;;;15.22;100.00
60373;BME280;46216;52.220;5.134;2022-10-17T02:45:26;101690.63;;;15.25;100.00
60373;BME280;46216;52.220;5.134;2022-10-17T02:48:24;101683.44;;;15.26;100.00
60373;BME280;46216;52.220;5.134;2022-10-17T02:53:31;101689.03;;;15.34;100.00
60373;BME280;46216;52.220;5.134;2022-10-17T02:56:08;101683.19;;;15.40;100.00
60373;BME280;46216;52.220;5.134;2022-10-17T02:58:38;101693.53;;;15.45;100.00
60373;BME280;46216;52.220;5.134;2022-10-17T03:01:04;101700.50;;;15.47;100.00
60373;BME280;46216;52.220;5.134;2022-10-17T03:03:31;101692.97;;;15.52;100.00
60373;BME280;46216;52.220;5.134;2022-10-17T03:05:56;101691.47;;;15.59;100.00
60373;BME280;46216;52.220;5.134;2022-10-17T03:08:22;101698.56;;;15.60;100.00
60373;BME280;46216;52.220;5.134;2022-10-17T03:10:48;101691.94;;;15.65;100.00
60373;BME280;46216;52.220;5.134;2022-10-17T03:13:14;101691.50;;;15.71;100.00
60373;BME280;46216;52.220;5.134;2022-10-17T03:15:39;101695.78;;;15.73;100.00
60373;BME280;46216;52.220;5.134;2022-10-17T03:18:05;101701.50;;;15.80;100.00
60373;BME280;46216;52.220;5.134;2022-10-17T03:20:30;101701.25;;;15.83;100.00
60373;BME280;46216;52.220;5.134;2022-10-17T03:22:55;101703.94;;;15.83;100.00
60373;BME280;46216;52.220;5.134;2022-10-17T03:25:21;101704.56;;;15.87;100.00
60373;BME280;46216;52.220;5.134;2022-10-17T03:27:46;101714.06;;;15.91;100.00
60373;BME280;46216;52.220;5.134;2022-10-17T03:30:11;101707.00;;;15.90;100.00
60373;BME280;46216;52.220;5.134;2022-10-17T03:32:37;101716.38;;;15.95;100.00
60373;BME280;46216;52.220;5.134;2022-10-17T03:35:03;101721.75;;;15.95;100.00
60373;BME280;46216;52.220;5.134;2022-10-17T03:37:28;101724.94;;;16.00;100.00
60373;BME280;46216;52.220;5.134;2022-10-17T03:39:53;101713.34;;;16.00;100.00
60373;BME280;46216;52.220;5.134;2022-10-17T03:42:19;101722.00;;;16.03;100.00
60373;BME280;46216;52.220;5.134;2022-10-17T03:44:44;101714.88;;;16.02;100.00
60373;BME280;46216;52.220;5.134;2022-10-17T03:47:09;101725.53;;;16.04;100.00
60373;BME280;46216;52.220;5.134;2022-10-17T03:49:35;101722.84;;;16.04;100.00
60373;BME280;46216;52.220;5.134;2022-10-17T03:52:00;101721.00;;;16.04;100.00
60373;BME280;46216;52.220;5.134;2022-10-17T03:54:26;101709.16;;;16.07;100.00
60373;BME280;46216;52.220;5.134;2022-10-17T03:56:51;101719.03;;;16.06;100.00
60373;BME280;46216;52.220;5.134;2022-10-17T03:59:16;101722.47;;;16.08;100.00
60373;BME280;46216;52.220;5.134;2022-10-17T04:01:42;101708.16;;;16.08;100.00
60373;BME280;46216;52.220;5.134;2022-10-17T04:04:07;101706.22;;;16.10;100.00
60373;BME280;46216;52.220;5.134;2022-10-17T04:06:33;101713.31;;;16.11;100.00
60373;BME280;46216;52.220;5.134;2022-10-17T04:08:59;101708.78;;;16.12;100.00
60373;BME280;46216;52.220;5.134;2022-10-17T04:11:24;101715.13;;;16.11;100.00
60373;BME280;46216;52.220;5.134;2022-10-17T04:13:54;101707.19;;;16.09;100.00
60373;BME280;46216;52.220;5.134;2022-10-17T04:16:20;101716.97;;;16.10;100.00
60373;BME280;46216;52.220;5.134;2022-10-17T04:18:45;101725.66;;;16.14;100.00
60373;BME280;46216;52.220;5.134;2022-10-17T04:21:11;101744.72;;;16.11;100.00
60373;BME280;46216;52.220;5.134;2022-10-17T04:23:37;101745.91;;;16.18;100.00
60373;BME280;46216;52.220;5.134;2022-10-17T04:26:03;101735.16;;;16.18;100.00
60373;BME280;46216;52.220;5.134;2022-10-17T04:28:30;101721.47;;;16.21;100.00
60373;BME280;46216;52.220;5.134;2022-10-17T04:31:03;101726.84;;;16.21;100.00
60373;BME280;46216;52.220;5.134;2022-10-17T04:33:30;101731.09;;;16.23;100.00
60373;BME280;46216;52.220;5.134;2022-10-17T04:35:59;101733.53;;;16.26;100.00
60373;BME280;46216;52.220;5.134;2022-10-17T04:38:25;101740.50;;;16.29;100.00
60373;BME280;46216;52.220;5.134;2022-10-17T04:40:51;101731.19;;;16.33;100.00
60373;BME280;46216;52.220;5.134;2022-10-17T04:43:16;101741.00;;;16.34;100.00
60373;BME280;46216;52.220;5.134;2022-10-17T04:45:42;101738.06;;;16.37;100.00
60373;BME280;46216;52.220;5.134;2022-10-17T04:48:07;101747.56;;;16.41;100.00
60373;BME280;46216;52.220;5.134;2022-10-17T04:50:33;101748.28;;;16.43;100.00
60373;BME280;46216;52.220;5.134;2022-10-17T04:52:59;101737.41;;;16.45;100.00
60373;BME280;46216;52.220;5.134;2022-10-17T04:55:24;101751.97;;;16.42;100.00
60373;BME280;46216;52.220;5.134;2022-10-17T04:57:49;101751.47;;;16.48;100.00
60373;BME280;46216;52.220;5.134;2022-10-17T05:00:15;101755.00;;;16.49;100.00
60373;BME280;46216;52.220;5.134;2022-10-17T05:02:40;101756.19;;;16.56;100.00
60373;BME280;46216;52.220;5.134;2022-10-17T05:05:06;101776.47;;;16.60;100.00
60373;BME280;46216;52.220;5.134;2022-10-17T05:07:31;101763.38;;;16.67;100.00
60373;BME280;46216;52.220;5.134;2022-10-17T05:09:56;101778.81;;;16.65;100.00
60373;BME280;46216;52.220;5.134;2022-10-17T05:12:23;101764.94;;;16.69;100.00
60373;BME280;46216;52.220;5.134;2022-10-17T05:14:48;101765.81;;;16.70;100.00
60373;BME280;46216;52.220;5.134;2022-10-17T05:17:14;101769.09;;;16.73;100.00
60373;BME280;46216;52.220;5.134;2022-10-17T05:19:39;101768.38;;;16.71;100.00
60373;BME280;46216;52.220;5.134;2022-10-17T05:22:04;101750.50;;;16.70;100.00
60373;BME280;46216;52.220;5.134;2022-10-17T05:24:29;101761.41;;;16.69;100.00
60373;BME280;46216;52.220;5.134;2022-10-17T05:26:55;101753.09;;;16.72;100.00
60373;BME280;46216;52.220;5.134;2022-10-17T05:29:20;101751.34;;;16.71;100.00
60373;BME280;46216;52.220;5.134;2022-10-17T05:31:46;101773.50;;;16.74;100.00
60373;BME280;46216;52.220;5.134;2022-10-17T05:34:12;101779.78;;;16.75;100.00
60373;BME280;46216;52.220;5.134;2022-10-17T05:36:37;101780.47;;;16.77;100.00
60373;BME280;46216;52.220;5.134;2022-10-17T05:39:02;101779.53;;;16.78;100.00
60373;BME280;46216;52.220;5.134;2022-10-17T05:41:28;101781.47;;;16.76;100.00
60373;BME280;46216;52.220;5.134;2022-10-17T05:43:53;101795.78;;;16.76;100.00
60373;BME280;46216;52.220;5.134;2022-10-17T05:46:18;101783.06;;;16.78;100.00
60373;BME280;46216;52.220;5.134;2022-10-17T05:48:44;101775.00;;;16.78;100.00
60373;BME280;46216;52.220;5.134;2022-10-17T05:51:09;101771.31;;;16.79;100.00
60373;BME280;46216;52.220;5.134;2022-10-17T05:53:37;101768.00;;;16.76;100.00
60373;BME280;46216;52.220;5.134;2022-10-17T05:56:05;101769.72;;;16.77;100.00
60373;BME280;46216;52.220;5.134;2022-10-17T05:58:32;101766.31;;;16.75;100.00
60373;BME280;46216;52.220;5.134;2022-10-17T06:01:00;101770.09;;;16.72;100.00
60373;BME280;46216;52.220;5.134;2022-10-17T06:03:26;101764.56;;;16.74;100.00
60373;BME280;46216;52.220;5.134;2022-10-17T06:05:52;101780.97;;;16.71;100.00
60373;BME280;46216;52.220;5.134;2022-10-17T06:08:18;101781.69;;;16.73;100.00
60373;BME280;46216;52.220;5.134;2022-10-17T06:10:46;101787.34;;;16.70;100.00
60373;BME280;46216;52.220;5.134;2022-10-17T06:13:12;101790.03;;;16.70;100.00
60373;BME280;46216;52.220;5.134;2022-10-17T06:15:37;101794.56;;;16.69;100.00
60373;BME280;46216;52.220;5.134;2022-10-17T06:18:03;101789.19;;;16.69;100.00
60373;BME280;46216;52.220;5.134;2022-10-17T06:20:28;101776.81;;;16.67;100.00
60373;BME280;46216;52.220;5.134;2022-10-17T06:22:53;101776.81;;;16.67;100.00
60373;BME280;46216;52.220;5.134;2022-10-17T06:25:19;101791.28;;;16.66;100.00
60373;BME280;46216;52.220;5.134;2022-10-17T06:27:44;101791.28;;;16.66;100.00
60373;BME280;46216;52.220;5.134;2022-10-17T06:30:09;101795.66;;;16.67;100.00
60373;BME280;46216;52.220;5.134;2022-10-17T06:32:34;101811.72;;;16.68;100.00
60373;BME280;46216;52.220;5.134;2022-10-17T06:35:00;101816.94;;;16.70;100.00
60373;BME280;46216;52.220;5.134;2022-10-17T06:37:25;101810.31;;;16.74;100.00
60373;BME280;46216;52.220;5.134;2022-10-17T06:39:54;101812.09;;;16.75;100.00
60373;BME280;46216;52.220;5.134;2022-10-17T06:42:19;101825.53;;;16.75;100.00
60373;BME280;46216;52.220;5.134;2022-10-17T06:44:44;101837.88;;;16.77;100.00
60373;BME280;46216;52.220;5.134;2022-10-17T06:47:10;101844.84;;;16.80;100.00
60373;BME280;46216;52.220;5.134;2022-10-17T06:49:35;101845.84;;;16.79;100.00
60373;BME280;46216;52.220;5.134;2022-10-17T06:52:00;101834.81;;;16.82;100.00
60373;BME280;46216;52.220;5.134;2022-10-17T06:54:26;101840.91;;;16.84;100.00
60373;BME280;46216;52.220;5.134;2022-10-17T06:56:52;101836.25;;;16.86;100.00
60373;BME280;46216;52.220;5.134;2022-10-17T06:59:17;101847.03;;;16.86;100.00
60373;BME280;46216;52.220;5.134;2022-10-17T07:01:42;101852.16;;;16.89;100.00
60373;BME280;46216;52.220;5.134;2022-10-17T07:04:08;101859.25;;;16.90;100.00
60373;BME280;46216;52.220;5.134;2022-10-17T07:06:33;101860.09;;;16.91;100.00
60373;BME280;46216;52.220;5.134;2022-10-17T07:08:58;101851.91;;;16.92;100.00
60373;BME280;46216;52.220;5.134;2022-10-17T07:11:26;101863.38;;;16.94;100.00
60373;BME280;46216;52.220;5.134;2022-10-17T07:13:51;101853.34;;;16.96;100.00
60373;BME280;46216;52.220;5.134;2022-10-17T07:16:17;101861.88;;;17.01;100.00
60373;BME280;46216;52.220;5.134;2022-10-17T07:18:42;101859.09;;;17.03;100.00
60373;BME280;46216;52.220;5.134;2022-10-17T07:21:08;101870.44;;;17.07;100.00
60373;BME280;46216;52.220;5.134;2022-10-17T07:23:35;101858.56;;;17.09;100.00
60373;BME280;46216;52.220;5.134;2022-10-17T07:26:06;101873.75;;;17.10;100.00
60373;BME280;46216;52.220;5.134;2022-10-17T07:28:33;101880.72;;;17.13;100.00
60373;BME280;46216;52.220;5.134;2022-10-17T07:31:07;101880.56;;;17.14;100.00
60373;BME280;46216;52.220;5.134;2022-10-17T07:33:32;101872.84;;;17.21;100.00
60373;BME280;46216;52.220;5.134;2022-10-17T07:35:59;101876.53;;;17.20;100.00
60373;BME280;46216;52.220;5.134;2022-10-17T07:38:25;101891.59;;;17.22;100.00
60373;BME280;46216;52.220;5.134;2022-10-17T07:40:55;101910.56;;;17.21;100.00
60373;BME280;46216;52.220;5.134;2022-10-17T07:43:21;101921.66;;;17.27;100.00
60373;BME280;46216;52.220;5.134;2022-10-17T07:45:47;101919.56;;;17.31;100.00
60373;BME280;46216;52.220;5.134;2022-10-17T07:48:12;101927.41;;;17.34;100.00
60373;BME280;46216;52.220;5.134;2022-10-17T07:50:38;101935.38;;;17.36;100.00
60373;BME280;46216;52.220;5.134;2022-10-17T07:53:03;101950.41;;;17.38;100.00
60373;BME280;46216;52.220;5.134;2022-10-17T07:55:28;101963.78;;;17.40;100.00
60373;BME280;46216;52.220;5.134;2022-10-17T07:57:54;101977.84;;;17.43;100.00
60373;BME280;46216;52.220;5.134;2022-10-17T08:00:19;101995.47;;;17.47;100.00
60373;BME280;46216;52.220;5.134;2022-10-17T08:02:44;102009.19;;;17.44;100.00
60373;BME280;46216;52.220;5.134;2022-10-17T08:05:09;102024.25;;;17.47;100.00
60373;BME280;46216;52.220;5.134;2022-10-17T08:07:35;102040.28;;;17.48;100.00
60373;BME280;46216;52.220;5.134;2022-10-17T08:10:00;102055.50;;;17.49;100.00
60373;BME280;46216;52.220;5.134;2022-10-17T08:12:25;102059.16;;;17.48;100.00
60373;BME280;46216;52.220;5.134;2022-10-17T08:14:51;102059.75;;;17.52;100.00
60373;BME280;46216;52.220;5.134;2022-10-17T08:17:16;102059.41;;;17.57;100.00
60373;BME280;46216;52.220;5.134;2022-10-17T08:19:41;102057.81;;;17.54;100.00
60373;BME280;46216;52.220;5.134;2022-10-17T08:22:07;102047.13;;;17.53;100.00
60373;BME280;46216;52.220;5.134;2022-10-17T08:24:32;102042.72;;;17.52;100.00
60373;BME280;46216;52.220;5.134;2022-10-17T08:26:57;102056.94;;;17.54;100.00
60373;BME280;46216;52.220;5.134;2022-10-17T08:29:25;102039.94;;;17.53;100.00
60373;BME280;46216;52.220;5.134;2022-10-17T08:31:50;102038.94;;;17.54;100.00
60373;BME280;46216;52.220;5.134;2022-10-17T08:34:16;102030.00;;;17.54;100.00
60373;BME280;46216;52.220;5.134;2022-10-17T08:36:42;102029.00;;;17.55;100.00
60373;BME280;46216;52.220;5.134;2022-10-17T08:39:07;102037.22;;;17.53;100.00
60373;BME280;46216;52.220;5.134;2022-10-17T08:44:56;102048.63;;;17.45;100.00
60373;BME280;46216;52.220;5.134;2022-10-17T08:47:25;102052.06;;;17.47;100.00
60373;BME280;46216;52.220;5.134;2022-10-17T08:49:55;102053.06;;;17.46;100.00
60373;BME280;46216;52.220;5.134;2022-10-17T08:52:39;102055.75;;;17.46;100.00
60373;BME280;46216;52.220;5.134;2022-10-17T08:55:14;102040.28;;;17.48;100.00
60373;BME280;46216;52.220;5.134;2022-10-17T08:57:39;102018.72;;;17.48;100.00
60373;BME280;46216;52.220;5.134;2022-10-17T09:00:16;101999.25;;;17.45;100.00
60373;BME280;46216;52.220;5.134;2022-10-17T09:02:53;102002.09;;;17.43;100.00
60373;BME280;46216;52.220;5.134;2022-10-17T09:05:29;102007.50;;;17.43;100.00
60373;BME280;46216;52.220;5.134;2022-10-17T09:08:08;102002.81;;;17.45;100.00
60373;BME280;46216;52.220;5.134;2022-10-17T09:13:35;102006.38;;;17.46;100.00
60373;BME280;46216;52.220;5.134;2022-10-17T09:18:42;102037.59;;;17.48;100.00
60373;BME280;46216;52.220;5.134;2022-10-17T09:21:24;102042.72;;;17.52;100.00
60373;BME280;46216;52.220;5.134;2022-10-17T09:23:55;102067.97;;;17.50;100.00
60373;BME280;46216;52.220;5.134;2022-10-17T09:26:23;102073.38;;;17.50;100.00
60373;BME280;46216;52.220;5.134;2022-10-17T09:28:55;102065.16;;;17.52;100.00
60373;BME280;46216;52.220;5.134;2022-10-17T09:31:25;102069.69;;;17.52;100.00
60373;BME280;46216;52.220;5.134;2022-10-17T09:33:55;102070.28;;;17.55;100.00
60373;BME280;46216;52.220;5.134;2022-10-17T09:36:54;102047.88;;;17.55;100.00
60373;BME280;46216;52.220;5.134;2022-10-17T09:39:16;102050.72;;;17.53;100.00
60373;BME280;46216;52.220;5.134;2022-10-17T09:41:52;102040.78;;;17.54;100.00
60373;BME280;46216;52.220;5.134;2022-10-17T09:44:18;102030.44;;;17.59;100.00
60373;BME280;46216;52.220;5.134;2022-10-17T09:47:01;102035.13;;;17.57;100.00
60373;BME280;46216;52.220;5.134;2022-10-17T09:49:36;102043.22;;;17.57;100.00
60373;BME280;46216;52.220;5.134;2022-10-17T09:52:04;102035.59;;;17.62;100.00
60373;BME280;46216;52.220;5.134;2022-10-17T09:54:43;102040.97;;;17.62;100.00
60373;BME280;46216;52.220;5.134;2022-10-17T09:57:11;102055.06;;;17.65;100.00
60373;BME280;46216;52.220;5.134;2022-10-17T09:59:40;102062.19;;;17.66;100.00
60373;BME280;46216;52.220;5.134;2022-10-17T10:02:18;102070.38;;;17.65;100.00
60373;BME280;46216;52.220;5.134;2022-10-17T10:07:24;102101.63;;;17.67;100.00
60373;BME280;46216;52.220;5.134;2022-10-17T10:09:51;102112.41;;;17.67;100.00
60373;BME280;46216;52.220;5.134;2022-10-17T10:12:23;102118.66;;;17.68;100.00
60373;BME280;46216;52.220;5.134;2022-10-17T10:14:49;102118.81;;;17.66;100.00
60373;BME280;46216;52.220;5.134;2022-10-17T10:17:33;102127.16;;;17.63;100.00
60373;BME280;46216;52.220;5.134;2022-10-17T10:19:59;102130.31;;;17.68;100.00
60373;BME280;46216;52.220;5.134;2022-10-17T10:22:25;102132.16;;;17.68;100.00
60373;BME280;46216;52.220;5.134;2022-10-17T10:27:34;102147.56;;;17.66;100.00
60373;BME280;46216;52.220;5.134;2022-10-17T10:30:00;102156.56;;;17.66;100.00
60373;BME280;46216;52.220;5.134;2022-10-17T10:32:34;102153.34;;;17.61;100.00
60373;BME280;46216;52.220;5.134;2022-10-17T10:35:20;102160.84;;;17.58;100.00
60373;BME280;46216;52.220;5.134;2022-10-17T10:37:50;102160.84;;;17.58;100.00
60373;BME280;46216;52.220;5.134;2022-10-17T10:40:21;102173.47;;;17.57;100.00
60373;BME280;46216;52.220;5.134;2022-10-17T10:42:49;102172.63;;;17.57;100.00
60373;BME280;46216;52.220;5.134;2022-10-17T10:45:24;102161.94;;;17.55;100.00
60373;BME280;46216;52.220;5.134;2022-10-17T10:48:36;102175.31;;;17.57;100.00
60373;BME280;46216;52.220;5.134;2022-10-17T10:53:28;102188.53;;;17.48;100.00
60373;BME280;46216;52.220;5.134;2022-10-17T10:58:55;102206.81;;;17.34;100.00
60373;BME280;46216;52.220;5.134;2022-10-17T11:06:51;102208.50;;;17.35;100.00
60373;BME280;46216;52.220;5.134;2022-10-17T11:09:22;102203.97;;;17.35;100.00
60373;BME280;46216;52.220;5.134;2022-10-17T11:11:55;102207.66;;;17.34;100.00
60373;BME280;46216;52.220;5.134;2022-10-17T11:14:36;102198.59;;;17.35;100.00
60373;BME280;46216;52.220;5.134;2022-10-17T11:20:00;102203.63;;;17.40;100.00
60373;BME280;46216;52.220;5.134;2022-10-17T11:22:31;102212.31;;;17.43;100.00
60373;BME280;46216;52.220;5.134;2022-10-17T11:25:03;102220.28;;;17.45;100.00
60373;BME280;46216;52.220;5.134;2022-10-17T11:27:29;102237.53;;;17.42;100.00
60373;BME280;46216;52.220;5.134;2022-10-17T11:29:56;102230.44;;;17.41;100.00
60373;BME280;46216;52.220;5.134;2022-10-17T11:32:29;102229.72;;;17.39;100.00
60373;BME280;46216;52.220;5.134;2022-10-17T11:35:03;102236.06;;;17.38;100.00
60373;BME280;46216;52.220;5.134;2022-10-17T11:37:34;102242.44;;;17.37;100.00
60373;BME280;46216;52.220;5.134;2022-10-17T11:40:09;102239.00;;;17.35;100.00
60373;BME280;46216;52.220;5.134;2022-10-17T11:42:50;102249.06;;;17.33;100.00
60373;BME280;46216;52.220;5.134;2022-10-17T11:45:19;102255.31;;;17.34;100.00
60373;BME280;46216;52.220;5.134;2022-10-17T11:47:50;102247.31;;;17.32;100.00
60373;BME280;46216;52.220;5.134;2022-10-17T11:50:34;102255.69;;;17.29;100.00
60373;BME280;46216;52.220;5.134;2022-10-17T11:55:33;102257.38;;;17.30;100.00
60373;BME280;46216;52.220;5.134;2022-10-17T12:03:27;102262.41;;;17.23;100.00
60373;BME280;46216;52.220;5.134;2022-10-17T12:06:07;102254.94;;;17.27;100.00
60373;BME280;46216;52.220;5.134;2022-10-17T12:08:43;102261.06;;;17.29;100.00
60373;BME280;46216;52.220;5.134;2022-10-17T12:11:48;102271.97;;;17.27;100.00
60373;BME280;46216;52.220;5.134;2022-10-17T12:17:21;102277.97;;;17.31;100.00
60373;BME280;46216;52.220;5.134;2022-10-17T12:19:47;102274.03;;;17.35;100.00
60373;BME280;46216;52.220;5.134;2022-10-17T12:22:22;102267.94;;;17.33;100.00
60373;BME280;46216;52.220;5.134;2022-10-17T12:24:58;102275.03;;;17.34;100.00
60373;BME280;46216;52.220;5.134;2022-10-17T12:30:21;102282.13;;;17.35;100.00
60373;BME280;46216;52.220;5.134;2022-10-17T12:35:29;102287.41;;;17.37;100.00
60373;BME280;46216;52.220;5.134;2022-10-17T12:38:01;102288.25;;;17.37;100.00
60373;BME280;46216;52.220;5.134;2022-10-17T12:43:26;102297.72;;;17.43;100.00
60373;BME280;46216;52.220;5.134;2022-10-17T12:46:40;102303.91;;;17.32;100.00
60373;BME280;46216;52.220;5.134;2022-10-17T12:49:01;102302.50;;;17.39;100.00
60373;BME280;46216;52.220;5.134;2022-10-17T12:51:27;102304.19;;;17.40;100.00
60373;BME280;46216;52.220;5.134;2022-10-17T12:54:13;102302.97;;;17.44;100.00
60373;BME280;46216;52.220;5.134;2022-10-17T12:56:44;102304.34;;;17.50;100.00
60373;BME280;46216;52.220;5.134;2022-10-17T12:59:21;102312.28;;;17.52;100.00
60373;BME280;46216;52.220;5.134;2022-10-17T13:01:53;102310.09;;;17.57;100.00
60373;BME280;46216;52.220;5.134;2022-10-17T13:04:20;102313.28;;;17.62;100.00
60373;BME280;46216;52.220;5.134;2022-10-17T13:06:47;102310.34;;;17.65;100.00
60373;BME280;46216;52.220;5.134;2022-10-17T13:11:49;102320.66;;;17.71;100.00
60373;BME280;46216;52.220;5.134;2022-10-17T13:14:18;102326.78;;;17.73;100.00
60373;BME280;46216;52.220;5.134;2022-10-17T13:16:50;102316.00;;;17.73;100.00
60373;BME280;46216;52.220;5.134;2022-10-17T13:19:19;102327.44;;;17.77;100.00
60373;BME280;46216;52.220;5.134;2022-10-17T13:21:55;102333.88;;;17.74;100.00
60373;BME280;46216;52.220;5.134;2022-10-17T13:27:00;102334.53;;;17.78;100.00
60373;BME280;46216;52.220;5.134;2022-10-17T13:29:27;102342.50;;;17.79;100.00
60373;BME280;46216;52.220;5.134;2022-10-17T13:32:04;102351.56;;;17.78;100.00
60373;BME280;46216;52.220;5.134;2022-10-17T13:34:31;102353.91;;;17.83;100.00
60373;BME280;46216;52.220;5.134;2022-10-17T13:37:04;102363.81;;;17.82;100.00
60373;BME280;46216;52.220;5.134;2022-10-17T13:39:36;102370.22;;;17.81;100.00
60373;BME280;46216;52.220;5.134;2022-10-17T13:42:03;102368.38;;;17.82;100.00
60373;BME280;46216;52.220;5.134;2022-10-17T13:44:32;102375.59;;;17.81;100.00
60373;BME280;46216;52.220;5.134;2022-10-17T13:46:58;102376.34;;;17.83;100.00
60373;BME280;46216;52.220;5.134;2022-10-17T13:49:36;102373.91;;;17.80;100.00
60373;BME280;46216;52.220;5.134;2022-10-17T13:52:05;102371.91;;;17.82;100.00
60373;BME280;46216;52.220;5.134;2022-10-17T13:57:02;102376.97;;;17.87;100.00
60373;BME280;46216;52.220;5.134;2022-10-17T13:59:36;102377.06;;;17.85;100.00
60373;BME280;46216;52.220;5.134;2022-10-17T14:02:02;102369.72;;;17.87;100.00
60373;BME280;46216;52.220;5.134;2022-10-17T14:04:28;102378.78;;;17.86;100.00